createdAt,value
2023-04-19T01:06:39.625Z,16.08
2023-04-19T01:09:07.537Z,16.03
2023-04-19T01:11:37.147Z,15.97
2023-04-19T01:14:12.093Z,15.88
2023-04-19T01:16:51.500Z,15.97
2023-04-19T01:19:19.400Z,15.88
2023-04-19T01:22:05.200Z,15.89
2023-04-19T01:24:40.723Z,15.74
2023-04-19T01:28:04.632Z,15.80
2023-04-19T01:30:41.298Z,15.75
2023-04-19T01:33:18.995Z,15.71
2023-04-19T01:36:04.128Z,15.65
2023-04-19T01:38:53.351Z,15.64
2023-04-19T01:41:31.596Z,15.52
2023-04-19T01:44:11.953Z,15.59
2023-04-19T01:46:39.735Z,15.55
2023-04-19T01:49:19.398Z,15.49
2023-04-19T01:52:17.103Z,15.41
2023-04-19T01:55:14.582Z,15.34
2023-04-19T01:58:29.556Z,15.26
2023-04-19T02:01:02.638Z,15.19
2023-04-19T02:03:44.842Z,15.07
2023-04-19T02:06:15.554Z,15.07
2023-04-19T02:08:59.450Z,15.08
2023-04-19T02:11:38.140Z,15.02
2023-04-19T02:14:34.456Z,14.98
2023-04-19T02:17:14.364Z,14.90
2023-04-19T02:23:29.260Z,14.83
2023-04-19T02:26:30.771Z,14.79
2023-04-19T02:29:08.353Z,14.76
2023-04-19T02:31:47.085Z,14.62
2023-04-19T02:34:17.711Z,14.58
2023-04-19T02:36:53.633Z,14.52
2023-04-19T02:39:27.338Z,14.48
2023-04-19T02:42:03.013Z,14.48
2023-04-19T02:44:58.307Z,14.52
2023-04-19T02:47:41.141Z,14.51
2023-04-19T02:50:32.584Z,14.48
2023-04-19T02:53:10.518Z,14.44
2023-04-19T02:55:51.487Z,14.43
2023-04-19T02:58:27.995Z,14.39
2023-04-19T03:01:07.338Z,14.40
2023-04-19T03:03:37.469Z,14.29
2023-04-19T03:06:05.953Z,14.31
2023-04-19T03:08:41.405Z,14.22
2023-04-19T03:11:28.007Z,14.25
2023-04-19T03:14:17.883Z,14.24
2023-04-19T03:16:59.111Z,14.26
2023-04-19T03:19:31.765Z,14.22
2023-04-19T03:22:29.177Z,14.22
2023-04-19T03:24:58.803Z,14.09
2023-04-19T03:27:39.965Z,14.14
2023-04-19T03:30:31.402Z,14.13
2023-04-19T03:33:00.596Z,14.04
2023-04-19T03:35:37.512Z,14.08
2023-04-19T03:38:28.951Z,14.08
2023-04-19T03:41:30.855Z,13.98
2023-04-19T03:44:01.273Z,14.07
2023-04-19T03:46:43.479Z,13.97
2023-04-19T03:49:13.300Z,13.96
2023-04-19T03:51:49.499Z,13.93
2023-04-19T03:54:21.172Z,13.94
2023-04-19T03:56:54.963Z,13.87
2023-04-19T03:59:35.924Z,13.86
2023-04-19T04:02:05.300Z,13.83
2023-04-19T04:04:34.611Z,13.90
2023-04-19T04:07:16.006Z,13.92
2023-04-19T04:09:55.944Z,13.87
2023-04-19T04:12:24.654Z,13.86
2023-04-19T04:14:55.270Z,13.85
2023-04-19T04:17:31.845Z,13.82
2023-04-19T04:20:08.374Z,13.69
2023-04-19T04:22:36.126Z,13.67
2023-04-19T04:25:04.776Z,13.64
2023-04-19T04:28:00.547Z,13.66
2023-04-19T04:30:38.440Z,13.61
2023-04-19T04:33:09.789Z,13.50
2023-04-19T04:36:07.216Z,13.56
2023-04-19T04:38:38.348Z,13.39
2023-04-19T04:41:51.539Z,13.53
2023-04-19T04:44:28.398Z,13.47
2023-04-19T04:47:03.433Z,13.44
2023-04-19T04:49:40.195Z,13.47
2023-04-19T04:52:36.821Z,13.44
2023-04-19T04:55:52.644Z,13.39
2023-04-19T04:58:21.307Z,13.31
2023-04-19T05:00:50.010Z,13.27
2023-04-19T05:03:27.616Z,13.29
2023-04-19T05:05:55.068Z,13.20
2023-04-19T05:08:29.084Z,13.20
2023-04-19T05:11:18.123Z,13.20
2023-04-19T05:13:48.252Z,13.16
2023-04-19T05:19:00.836Z,13.12
2023-04-19T05:21:48.897Z,13.10
2023-04-19T05:24:28.039Z,13.02
2023-04-19T05:26:57.514Z,12.94
2023-04-19T05:29:26.271Z,12.96
2023-04-19T05:31:55.963Z,12.87
2023-04-19T05:34:29.620Z,12.89
2023-04-19T05:37:24.683Z,12.89
2023-04-19T05:40:12.526Z,12.83
2023-04-19T05:42:52.268Z,12.80
2023-04-19T05:45:23.775Z,12.80
2023-04-19T05:47:54.864Z,12.76
2023-04-19T05:50:23.448Z,12.75
2023-04-19T05:53:16.525Z,12.76
2023-04-19T05:55:46.031Z,12.73
2023-04-19T05:58:13.656Z,12.70
2023-04-19T06:01:00.158Z,12.79
2023-04-19T06:03:47.112Z,12.84
2023-04-19T06:06:15.509Z,12.86
2023-04-19T06:08:49.080Z,12.95
2023-04-19T06:11:50.144Z,13.00
2023-04-19T06:14:19.738Z,12.98
2023-04-19T06:16:54.563Z,12.99
2023-04-19T06:19:23.765Z,13.02
2023-04-19T06:22:01.303Z,12.99
2023-04-19T06:24:29.998Z,12.87
2023-04-19T06:27:04.713Z,12.86
2023-04-19T06:29:38.394Z,12.78
2023-04-19T06:32:27.652Z,12.87
2023-04-19T06:34:55.536Z,12.84
2023-04-19T06:37:23.625Z,12.85
2023-04-19T06:39:58.631Z,12.90
2023-04-19T06:42:28.612Z,12.97
2023-04-19T06:45:09.015Z,13.07
2023-04-19T06:47:52.925Z,13.19
2023-04-19T06:50:24.732Z,13.25
2023-04-19T06:52:55.780Z,13.28
2023-04-19T06:55:23.839Z,13.35
2023-04-19T06:57:54.744Z,13.39
2023-04-19T07:00:28.560Z,13.45
2023-04-19T07:03:05.927Z,13.57
2023-04-19T07:05:33.714Z,13.69
2023-04-19T07:08:10.031Z,13.75
2023-04-19T07:10:47.981Z,13.89
2023-04-19T07:13:19.675Z,13.98
2023-04-19T07:15:58.506Z,13.98
2023-04-19T07:18:37.471Z,14.20
2023-04-19T07:21:38.924Z,14.30
2023-04-19T07:24:08.055Z,14.29
2023-04-19T07:26:58.068Z,14.55
2023-04-19T07:29:25.853Z,14.62
2023-04-19T07:32:02.240Z,14.73
2023-04-19T07:35:22.806Z,14.97
2023-04-19T07:37:52.794Z,15.00
2023-04-19T07:40:21.699Z,15.19
2023-04-19T07:43:08.393Z,15.35
2023-04-19T07:45:37.146Z,15.42
2023-04-19T07:48:29.466Z,15.64
2023-04-19T07:50:59.705Z,15.74
2023-04-19T07:53:29.373Z,15.87
2023-04-19T07:55:58.824Z,15.95
2023-04-19T07:58:28.002Z,16.16
2023-04-19T08:00:57.062Z,16.35
2023-04-19T08:03:25.413Z,16.50
2023-04-19T08:06:13.374Z,16.69
2023-04-19T08:08:41.041Z,16.77
2023-04-19T08:11:08.656Z,16.87
2023-04-19T08:13:37.094Z,17.05
2023-04-19T08:18:37.846Z,17.31
2023-04-19T08:21:09.260Z,17.47
2023-04-19T08:23:47.168Z,17.58
2023-04-19T08:26:17.671Z,17.71
2023-04-19T08:28:45.299Z,17.80
2023-04-19T08:31:14.220Z,17.91
2023-04-19T08:33:41.871Z,18.05
2023-04-19T08:36:10.661Z,18.13
2023-04-19T08:38:39.738Z,18.23
2023-04-19T08:41:07.153Z,18.30
2023-04-19T08:43:38.118Z,18.49
2023-04-19T08:46:06.797Z,18.59
2023-04-19T08:48:37.666Z,18.73
2023-04-19T08:59:29.745Z,19.22
2023-04-19T09:02:01.398Z,19.29
2023-04-19T09:04:36.746Z,19.48
2023-04-19T09:07:05.259Z,19.58
2023-04-19T09:09:39.170Z,19.73
2023-04-19T09:16:04.606Z,19.91
2023-04-19T09:19:23.518Z,20.02
2023-04-19T21:22:14.396Z,18.17
2023-04-19T21:24:41.909Z,18.12
2023-04-19T21:27:09.497Z,18.15
2023-04-19T21:33:25.854Z,18.14
2023-04-19T21:35:53.399Z,18.10
2023-04-19T21:38:20.889Z,18.11
2023-04-19T21:40:49.875Z,18.09
2023-04-19T21:43:17.676Z,18.07
2023-04-19T21:45:47.143Z,18.08
2023-04-19T21:48:14.923Z,18.08
2023-04-19T21:50:42.972Z,18.02
2023-04-19T21:53:10.779Z,17.91
2023-04-19T21:55:39.918Z,17.99
2023-04-19T21:58:07.695Z,18.02
2023-04-19T22:00:36.681Z,17.91
2023-04-19T22:03:06.525Z,18.02
2023-04-19T22:05:34.324Z,17.95
2023-04-19T22:08:07.721Z,17.98
2023-04-19T22:10:35.760Z,17.92
2023-04-19T22:13:04.071Z,17.92
2023-04-19T22:15:32.534Z,17.93
2023-04-19T22:18:03.600Z,17.91
2023-04-19T22:20:32.756Z,17.93
2023-04-19T22:23:00.631Z,17.83
2023-04-19T22:25:31.908Z,17.80
2023-04-19T22:27:59.417Z,17.84
2023-04-19T22:30:27.513Z,17.81
2023-04-19T22:32:55.375Z,17.80
2023-04-19T22:35:23.171Z,17.76
2023-04-19T22:37:51.048Z,17.76
2023-04-19T22:40:18.694Z,17.76
2023-04-19T22:42:46.216Z,17.73
2023-04-19T22:45:14.110Z,17.73
2023-04-19T22:47:44.192Z,17.72
2023-04-19T22:50:12.263Z,17.69
2023-04-19T22:52:42.003Z,17.71
2023-04-19T22:55:11.699Z,17.69
2023-04-19T22:57:39.360Z,17.65
2023-04-19T23:00:07.964Z,17.65
2023-04-19T23:02:36.197Z,17.63
2023-04-19T23:05:05.233Z,17.58
2023-04-19T23:07:33.759Z,17.61
2023-04-19T23:10:01.681Z,17.62
2023-04-19T23:12:31.852Z,17.58
2023-04-19T23:14:59.958Z,17.65
2023-04-19T23:17:29.077Z,17.64
2023-04-19T23:19:58.936Z,17.65
2023-04-19T23:22:27.048Z,17.59
2023-04-19T23:24:56.799Z,17.58
2023-04-19T23:27:24.397Z,17.59
2023-04-19T23:29:52.112Z,17.58
2023-04-19T23:32:19.874Z,17.57
2023-04-19T23:34:48.019Z,17.54
2023-04-19T23:37:17.711Z,17.51
2023-04-19T23:39:45.471Z,17.48
2023-04-19T23:42:13.073Z,17.50
2023-04-19T23:44:42.771Z,17.36
2023-04-19T23:47:12.273Z,17.48
2023-04-19T23:49:39.880Z,17.42
2023-04-19T23:52:07.541Z,17.39
2023-04-19T23:54:35.177Z,17.40
2023-04-19T23:57:06.411Z,17.36
2023-04-19T23:59:34.610Z,17.31
